sensor_id;sensor_type;location;lat;lon;timestamp;P1;durP1;ratioP1;P2;durP2;ratioP2
71106;SDS011;58763;47.982;11.516;2023-05-14T00:02:25;9.77;;;5.53;;
71106;SDS011;58763;47.982;11.516;2023-05-14T00:04:51;11.60;;;6.45;;
71106;SDS011;58763;47.982;11.516;2023-05-14T00:07:17;12.48;;;6.47;;
71106;SDS011;58763;47.982;11.516;2023-05-14T00:09:42;10.80;;;6.45;;
71106;SDS011;58763;47.982;11.516;2023-05-14T00:12:08;10.45;;;6.45;;
71106;SDS011;58763;47.982;11.516;2023-05-14T00:14:34;13.02;;;7.28;;
71106;SDS011;58763;47.982;11.516;2023-05-14T00:17:00;12.70;;;7.95;;
71106;SDS011;58763;47.982;11.516;2023-05-14T00:19:26;12.93;;;8.05;;
71106;SDS011;58763;47.982;11.516;2023-05-14T00:21:51;11.93;;;7.72;;
71106;SDS011;58763;47.982;11.516;2023-05-14T00:24:17;12.00;;;7.30;;
71106;SDS011;58763;47.982;11.516;2023-05-14T00:26:43;13.13;;;8.32;;
71106;SDS011;58763;47.982;11.516;2023-05-14T00:29:08;14.02;;;8.30;;
71106;SDS011;58763;47.982;11.516;2023-05-14T00:31:34;14.15;;;8.25;;
71106;SDS011;58763;47.982;11.516;2023-05-14T00:34:00;14.35;;;8.57;;
71106;SDS011;58763;47.982;11.516;2023-05-14T00:36:25;15.07;;;8.93;;
71106;SDS011;58763;47.982;11.516;2023-05-14T00:38:51;15.15;;;8.85;;
71106;SDS011;58763;47.982;11.516;2023-05-14T00:41:16;12.73;;;8.07;;
71106;SDS011;58763;47.982;11.516;2023-05-14T00:43:41;15.48;;;8.55;;
71106;SDS011;58763;47.982;11.516;2023-05-14T00:46:07;12.73;;;8.13;;
71106;SDS011;58763;47.982;11.516;2023-05-14T00:48:32;14.73;;;8.32;;
71106;SDS011;58763;47.982;11.516;2023-05-14T00:50:58;13.57;;;8.27;;
71106;SDS011;58763;47.982;11.516;2023-05-14T00:53:24;15.10;;;7.97;;
71106;SDS011;58763;47.982;11.516;2023-05-14T00:55:50;14.30;;;8.55;;
71106;SDS011;58763;47.982;11.516;2023-05-14T00:58:16;14.73;;;8.32;;
71106;SDS011;58763;47.982;11.516;2023-05-14T01:00:42;13.68;;;8.65;;
71106;SDS011;58763;47.982;11.516;2023-05-14T01:03:08;12.57;;;8.07;;
71106;SDS011;58763;47.982;11.516;2023-05-14T01:05:45;16.17;;;9.02;;
71106;SDS011;58763;47.982;11.516;2023-05-14T01:09:02;13.27;;;8.02;;
71106;SDS011;58763;47.982;11.516;2023-05-14T01:11:28;14.98;;;8.13;;
71106;SDS011;58763;47.982;11.516;2023-05-14T01:14:06;16.67;;;8.77;;
71106;SDS011;58763;47.982;11.516;2023-05-14T01:16:55;16.80;;;9.25;;
71106;SDS011;58763;47.982;11.516;2023-05-14T01:19:39;19.00;;;9.35;;
71106;SDS011;58763;47.982;11.516;2023-05-14T01:22:06;14.93;;;8.82;;
71106;SDS011;58763;47.982;11.516;2023-05-14T01:24:32;16.50;;;10.23;;
71106;SDS011;58763;47.982;11.516;2023-05-14T01:27:03;18.00;;;10.10;;
71106;SDS011;58763;47.982;11.516;2023-05-14T01:29:35;16.90;;;9.18;;
71106;SDS011;58763;47.982;11.516;2023-05-14T01:32:03;15.02;;;8.98;;
71106;SDS011;58763;47.982;11.516;2023-05-14T01:34:31;15.32;;;8.23;;
71106;SDS011;58763;47.982;11.516;2023-05-14T01:37:00;14.05;;;7.88;;
71106;SDS011;58763;47.982;11.516;2023-05-14T01:39:26;16.88;;;8.68;;
71106;SDS011;58763;47.982;11.516;2023-05-14T01:41:53;16.23;;;9.75;;
71106;SDS011;58763;47.982;11.516;2023-05-14T01:44:19;16.50;;;10.07;;
71106;SDS011;58763;47.982;11.516;2023-05-14T01:46:45;19.60;;;9.45;;
71106;SDS011;58763;47.982;11.516;2023-05-14T01:49:11;16.60;;;9.82;;
71106;SDS011;58763;47.982;11.516;2023-05-14T01:51:36;15.57;;;10.02;;
71106;SDS011;58763;47.982;11.516;2023-05-14T01:54:02;17.38;;;10.23;;
71106;SDS011;58763;47.982;11.516;2023-05-14T01:56:28;18.40;;;10.75;;
71106;SDS011;58763;47.982;11.516;2023-05-14T01:58:53;21.98;;;11.63;;
71106;SDS011;58763;47.982;11.516;2023-05-14T02:01:21;19.75;;;11.38;;
71106;SDS011;58763;47.982;11.516;2023-05-14T02:03:46;19.08;;;10.48;;
71106;SDS011;58763;47.982;11.516;2023-05-14T02:06:12;19.67;;;9.95;;
71106;SDS011;58763;47.982;11.516;2023-05-14T02:08:37;19.70;;;11.27;;
71106;SDS011;58763;47.982;11.516;2023-05-14T02:11:03;18.75;;;11.38;;
71106;SDS011;58763;47.982;11.516;2023-05-14T02:13:28;23.15;;;11.48;;
71106;SDS011;58763;47.982;11.516;2023-05-14T02:15:54;21.13;;;11.30;;
71106;SDS011;58763;47.982;11.516;2023-05-14T02:18:19;21.08;;;11.35;;
71106;SDS011;58763;47.982;11.516;2023-05-14T02:20:45;20.15;;;11.38;;
71106;SDS011;58763;47.982;11.516;2023-05-14T02:23:10;21.67;;;11.35;;
71106;SDS011;58763;47.982;11.516;2023-05-14T02:25:36;23.25;;;12.93;;
71106;SDS011;58763;47.982;11.516;2023-05-14T02:28:02;21.60;;;11.77;;
71106;SDS011;58763;47.982;11.516;2023-05-14T02:30:27;24.30;;;12.77;;
71106;SDS011;58763;47.982;11.516;2023-05-14T02:32:54;22.25;;;12.20;;
71106;SDS011;58763;47.982;11.516;2023-05-14T02:35:19;24.63;;;12.90;;
71106;SDS011;58763;47.982;11.516;2023-05-14T02:37:45;26.15;;;14.85;;
71106;SDS011;58763;47.982;11.516;2023-05-14T02:40:10;25.17;;;14.00;;
71106;SDS011;58763;47.982;11.516;2023-05-14T02:42:36;31.10;;;14.82;;
71106;SDS011;58763;47.982;11.516;2023-05-14T02:45:01;30.75;;;16.00;;
71106;SDS011;58763;47.982;11.516;2023-05-14T02:47:27;27.20;;;15.30;;
71106;SDS011;58763;47.982;11.516;2023-05-14T02:49:52;27.10;;;15.18;;
71106;SDS011;58763;47.982;11.516;2023-05-14T02:52:18;28.83;;;16.80;;
71106;SDS011;58763;47.982;11.516;2023-05-14T02:54:43;26.95;;;15.80;;
71106;SDS011;58763;47.982;11.516;2023-05-14T02:57:09;43.17;;;17.20;;
71106;SDS011;58763;47.982;11.516;2023-05-14T02:59:34;30.52;;;16.20;;
71106;SDS011;58763;47.982;11.516;2023-05-14T03:02:00;27.30;;;15.52;;
71106;SDS011;58763;47.982;11.516;2023-05-14T03:04:25;29.55;;;15.90;;
71106;SDS011;58763;47.982;11.516;2023-05-14T03:06:51;27.65;;;15.50;;
71106;SDS011;58763;47.982;11.516;2023-05-14T03:09:16;28.08;;;14.50;;
71106;SDS011;58763;47.982;11.516;2023-05-14T03:11:42;24.92;;;14.30;;
71106;SDS011;58763;47.982;11.516;2023-05-14T03:14:07;34.47;;;16.23;;
71106;SDS011;58763;47.982;11.516;2023-05-14T03:16:33;39.45;;;17.02;;
71106;SDS011;58763;47.982;11.516;2023-05-14T03:18:58;26.45;;;14.93;;
71106;SDS011;58763;47.982;11.516;2023-05-14T03:21:24;31.48;;;16.10;;
71106;SDS011;58763;47.982;11.516;2023-05-14T03:23:51;28.05;;;15.20;;
71106;SDS011;58763;47.982;11.516;2023-05-14T03:26:16;29.83;;;16.17;;
71106;SDS011;58763;47.982;11.516;2023-05-14T03:28:42;32.38;;;16.30;;
71106;SDS011;58763;47.982;11.516;2023-05-14T03:31:08;30.25;;;15.98;;
71106;SDS011;58763;47.982;11.516;2023-05-14T03:33:33;29.65;;;16.08;;
71106;SDS011;58763;47.982;11.516;2023-05-14T03:35:59;34.38;;;16.00;;
71106;SDS011;58763;47.982;11.516;2023-05-14T03:38:24;31.65;;;16.70;;
71106;SDS011;58763;47.982;11.516;2023-05-14T03:40:50;32.55;;;16.38;;
71106;SDS011;58763;47.982;11.516;2023-05-14T03:43:15;28.33;;;15.50;;
71106;SDS011;58763;47.982;11.516;2023-05-14T03:45:41;27.13;;;15.52;;
71106;SDS011;58763;47.982;11.516;2023-05-14T03:48:06;31.05;;;15.95;;
71106;SDS011;58763;47.982;11.516;2023-05-14T03:50:32;28.15;;;15.02;;
71106;SDS011;58763;47.982;11.516;2023-05-14T03:52:58;40.95;;;16.00;;
71106;SDS011;58763;47.982;11.516;2023-05-14T03:55:23;30.52;;;15.75;;
71106;SDS011;58763;47.982;11.516;2023-05-14T03:57:49;29.27;;;16.23;;
71106;SDS011;58763;47.982;11.516;2023-05-14T04:00:15;30.42;;;15.32;;
71106;SDS011;58763;47.982;11.516;2023-05-14T04:02:40;31.63;;;15.85;;
71106;SDS011;58763;47.982;11.516;2023-05-14T04:05:06;28.63;;;14.90;;
71106;SDS011;58763;47.982;11.516;2023-05-14T04:07:32;26.77;;;14.35;;
71106;SDS011;58763;47.982;11.516;2023-05-14T04:09:58;28.73;;;15.50;;
71106;SDS011;58763;47.982;11.516;2023-05-14T04:12:25;27.85;;;15.75;;
71106;SDS011;58763;47.982;11.516;2023-05-14T04:14:51;29.92;;;16.15;;
71106;SDS011;58763;47.982;11.516;2023-05-14T04:17:16;32.85;;;14.82;;
71106;SDS011;58763;47.982;11.516;2023-05-14T04:19:42;28.67;;;14.90;;
71106;SDS011;58763;47.982;11.516;2023-05-14T04:22:07;27.95;;;15.20;;
71106;SDS011;58763;47.982;11.516;2023-05-14T04:24:33;29.85;;;15.48;;
71106;SDS011;58763;47.982;11.516;2023-05-14T04:26:58;25.52;;;13.80;;
71106;SDS011;58763;47.982;11.516;2023-05-14T04:29:24;28.55;;;14.70;;
71106;SDS011;58763;47.982;11.516;2023-05-14T04:31:49;25.67;;;14.25;;
71106;SDS011;58763;47.982;11.516;2023-05-14T04:34:15;29.95;;;15.02;;
71106;SDS011;58763;47.982;11.516;2023-05-14T04:36:40;26.65;;;14.50;;
71106;SDS011;58763;47.982;11.516;2023-05-14T04:39:06;31.65;;;15.07;;
71106;SDS011;58763;47.982;11.516;2023-05-14T04:41:33;26.02;;;13.63;;
71106;SDS011;58763;47.982;11.516;2023-05-14T04:43:59;29.90;;;14.82;;
71106;SDS011;58763;47.982;11.516;2023-05-14T04:46:26;23.65;;;13.52;;
71106;SDS011;58763;47.982;11.516;2023-05-14T04:48:52;24.73;;;14.45;;
71106;SDS011;58763;47.982;11.516;2023-05-14T04:51:17;38.20;;;14.85;;
71106;SDS011;58763;47.982;11.516;2023-05-14T04:53:43;27.55;;;15.27;;
71106;SDS011;58763;47.982;11.516;2023-05-14T04:56:08;26.15;;;14.27;;
71106;SDS011;58763;47.982;11.516;2023-05-14T04:58:34;31.13;;;14.65;;
71106;SDS011;58763;47.982;11.516;2023-05-14T05:00:59;27.67;;;13.93;;
71106;SDS011;58763;47.982;11.516;2023-05-14T05:03:26;27.63;;;15.23;;
71106;SDS011;58763;47.982;11.516;2023-05-14T05:05:51;25.73;;;13.88;;
71106;SDS011;58763;47.982;11.516;2023-05-14T05:08:17;28.85;;;13.02;;
71106;SDS011;58763;47.982;11.516;2023-05-14T05:10:42;26.77;;;13.63;;
71106;SDS011;58763;47.982;11.516;2023-05-14T05:13:08;31.42;;;14.35;;
71106;SDS011;58763;47.982;11.516;2023-05-14T05:15:33;35.22;;;14.32;;
71106;SDS011;58763;47.982;11.516;2023-05-14T05:17:59;28.63;;;14.55;;
71106;SDS011;58763;47.982;11.516;2023-05-14T05:20:24;34.90;;;13.98;;
71106;SDS011;58763;47.982;11.516;2023-05-14T05:22:52;29.17;;;14.02;;
71106;SDS011;58763;47.982;11.516;2023-05-14T05:25:17;23.15;;;13.38;;
71106;SDS011;58763;47.982;11.516;2023-05-14T05:27:42;28.92;;;14.00;;
71106;SDS011;58763;47.982;11.516;2023-05-14T05:30:08;26.73;;;13.10;;
71106;SDS011;58763;47.982;11.516;2023-05-14T05:32:34;27.80;;;13.57;;
71106;SDS011;58763;47.982;11.516;2023-05-14T05:35:00;37.25;;;14.20;;
71106;SDS011;58763;47.982;11.516;2023-05-14T05:37:26;35.50;;;14.98;;
71106;SDS011;58763;47.982;11.516;2023-05-14T05:39:51;24.95;;;14.00;;
71106;SDS011;58763;47.982;11.516;2023-05-14T05:42:18;27.33;;;14.48;;
71106;SDS011;58763;47.982;11.516;2023-05-14T05:44:43;25.48;;;13.73;;
71106;SDS011;58763;47.982;11.516;2023-05-14T05:47:09;43.50;;;14.43;;
71106;SDS011;58763;47.982;11.516;2023-05-14T05:49:34;29.02;;;13.80;;
71106;SDS011;58763;47.982;11.516;2023-05-14T05:52:01;26.95;;;13.48;;
71106;SDS011;58763;47.982;11.516;2023-05-14T05:54:28;31.13;;;14.20;;
71106;SDS011;58763;47.982;11.516;2023-05-14T05:56:56;29.63;;;14.25;;
71106;SDS011;58763;47.982;11.516;2023-05-14T05:59:22;24.55;;;12.27;;
71106;SDS011;58763;47.982;11.516;2023-05-14T06:01:48;25.33;;;12.95;;
71106;SDS011;58763;47.982;11.516;2023-05-14T06:04:14;27.33;;;13.75;;
71106;SDS011;58763;47.982;11.516;2023-05-14T06:06:40;21.55;;;13.18;;
71106;SDS011;58763;47.982;11.516;2023-05-14T06:09:05;26.35;;;13.30;;
71106;SDS011;58763;47.982;11.516;2023-05-14T06:11:31;21.83;;;12.55;;
71106;SDS011;58763;47.982;11.516;2023-05-14T06:13:56;21.98;;;12.38;;
71106;SDS011;58763;47.982;11.516;2023-05-14T06:16:22;20.02;;;11.05;;
71106;SDS011;58763;47.982;11.516;2023-05-14T06:18:47;21.90;;;12.70;;
71106;SDS011;58763;47.982;11.516;2023-05-14T06:21:13;21.80;;;12.57;;
71106;SDS011;58763;47.982;11.516;2023-05-14T06:23:38;21.92;;;12.45;;
71106;SDS011;58763;47.982;11.516;2023-05-14T06:26:05;21.30;;;11.55;;
71106;SDS011;58763;47.982;11.516;2023-05-14T06:28:30;20.75;;;11.32;;
71106;SDS011;58763;47.982;11.516;2023-05-14T06:30:56;18.65;;;11.43;;
71106;SDS011;58763;47.982;11.516;2023-05-14T06:33:21;18.08;;;10.68;;
71106;SDS011;58763;47.982;11.516;2023-05-14T06:35:54;20.90;;;12.52;;
71106;SDS011;58763;47.982;11.516;2023-05-14T06:38:19;20.42;;;11.55;;
71106;SDS011;58763;47.982;11.516;2023-05-14T06:40:45;19.95;;;11.35;;
71106;SDS011;58763;47.982;11.516;2023-05-14T06:43:10;20.13;;;11.18;;
71106;SDS011;58763;47.982;11.516;2023-05-14T06:45:36;16.70;;;9.88;;
71106;SDS011;58763;47.982;11.516;2023-05-14T06:48:01;17.85;;;10.90;;
71106;SDS011;58763;47.982;11.516;2023-05-14T06:50:27;17.80;;;11.05;;
71106;SDS011;58763;47.982;11.516;2023-05-14T06:52:52;16.80;;;10.45;;
71106;SDS011;58763;47.982;11.516;2023-05-14T06:55:18;16.88;;;10.50;;
71106;SDS011;58763;47.982;11.516;2023-05-14T06:57:44;16.20;;;9.77;;
71106;SDS011;58763;47.982;11.516;2023-05-14T07:00:09;17.98;;;10.40;;
71106;SDS011;58763;47.982;11.516;2023-05-14T07:02:35;16.55;;;9.60;;
71106;SDS011;58763;47.982;11.516;2023-05-14T07:05:01;16.52;;;9.82;;
71106;SDS011;58763;47.982;11.516;2023-05-14T07:07:27;16.45;;;9.88;;
71106;SDS011;58763;47.982;11.516;2023-05-14T07:09:52;14.07;;;9.18;;
71106;SDS011;58763;47.982;11.516;2023-05-14T07:12:18;14.65;;;8.73;;
71106;SDS011;58763;47.982;11.516;2023-05-14T07:14:43;16.10;;;9.82;;
71106;SDS011;58763;47.982;11.516;2023-05-14T07:17:09;14.68;;;9.20;;
71106;SDS011;58763;47.982;11.516;2023-05-14T07:19:35;15.13;;;8.85;;
71106;SDS011;58763;47.982;11.516;2023-05-14T07:22:00;15.27;;;9.25;;
71106;SDS011;58763;47.982;11.516;2023-05-14T07:24:26;14.95;;;9.48;;
71106;SDS011;58763;47.982;11.516;2023-05-14T07:26:51;16.40;;;9.23;;
71106;SDS011;58763;47.982;11.516;2023-05-14T07:29:18;16.55;;;9.55;;
71106;SDS011;58763;47.982;11.516;2023-05-14T07:31:43;14.88;;;9.32;;
71106;SDS011;58763;47.982;11.516;2023-05-14T07:34:09;17.30;;;9.35;;
71106;SDS011;58763;47.982;11.516;2023-05-14T07:36:36;19.15;;;9.50;;
71106;SDS011;58763;47.982;11.516;2023-05-14T07:39:01;13.90;;;8.63;;
71106;SDS011;58763;47.982;11.516;2023-05-14T07:41:27;16.90;;;10.05;;
71106;SDS011;58763;47.982;11.516;2023-05-14T07:43:52;20.25;;;10.40;;
71106;SDS011;58763;47.982;11.516;2023-05-14T07:46:18;18.92;;;10.52;;
71106;SDS011;58763;47.982;11.516;2023-05-14T07:48:43;17.00;;;9.88;;
71106;SDS011;58763;47.982;11.516;2023-05-14T07:51:09;18.63;;;10.73;;
71106;SDS011;58763;47.982;11.516;2023-05-14T07:53:36;22.58;;;11.60;;
71106;SDS011;58763;47.982;11.516;2023-05-14T07:56:01;20.70;;;11.93;;
71106;SDS011;58763;47.982;11.516;2023-05-14T07:58:27;19.30;;;10.88;;
71106;SDS011;58763;47.982;11.516;2023-05-14T08:00:53;23.42;;;11.30;;
71106;SDS011;58763;47.982;11.516;2023-05-14T08:03:18;20.48;;;11.05;;
71106;SDS011;58763;47.982;11.516;2023-05-14T08:05:44;19.13;;;10.63;;
71106;SDS011;58763;47.982;11.516;2023-05-14T08:08:10;20.52;;;11.95;;
71106;SDS011;58763;47.982;11.516;2023-05-14T08:10:36;25.83;;;11.45;;
71106;SDS011;58763;47.982;11.516;2023-05-14T08:13:02;20.65;;;11.35;;
71106;SDS011;58763;47.982;11.516;2023-05-14T08:15:27;19.50;;;11.32;;
71106;SDS011;58763;47.982;11.516;2023-05-14T08:17:52;21.60;;;12.10;;
71106;SDS011;58763;47.982;11.516;2023-05-14T08:20:18;23.42;;;12.60;;
71106;SDS011;58763;47.982;11.516;2023-05-14T08:22:43;23.95;;;13.18;;
71106;SDS011;58763;47.982;11.516;2023-05-14T08:25:09;22.67;;;12.18;;
71106;SDS011;58763;47.982;11.516;2023-05-14T08:27:35;22.33;;;12.38;;
71106;SDS011;58763;47.982;11.516;2023-05-14T08:30:01;18.80;;;10.95;;
71106;SDS011;58763;47.982;11.516;2023-05-14T08:32:29;18.35;;;10.85;;
71106;SDS011;58763;47.982;11.516;2023-05-14T08:34:54;21.17;;;11.18;;
71106;SDS011;58763;47.982;11.516;2023-05-14T08:37:19;21.08;;;12.27;;
71106;SDS011;58763;47.982;11.516;2023-05-14T08:39:45;20.48;;;11.75;;
71106;SDS011;58763;47.982;11.516;2023-05-14T08:42:11;21.20;;;11.52;;
71106;SDS011;58763;47.982;11.516;2023-05-14T08:44:38;22.83;;;12.73;;
71106;SDS011;58763;47.982;11.516;2023-05-14T08:47:11;21.30;;;11.75;;
71106;SDS011;58763;47.982;11.516;2023-05-14T08:49:42;21.48;;;12.18;;
71106;SDS011;58763;47.982;11.516;2023-05-14T08:52:10;22.13;;;11.80;;
71106;SDS011;58763;47.982;11.516;2023-05-14T08:54:36;24.13;;;12.70;;
71106;SDS011;58763;47.982;11.516;2023-05-14T08:57:03;22.67;;;13.35;;
71106;SDS011;58763;47.982;11.516;2023-05-14T08:59:29;23.42;;;13.68;;
71106;SDS011;58763;47.982;11.516;2023-05-14T09:01:55;22.38;;;12.18;;
71106;SDS011;58763;47.982;11.516;2023-05-14T09:04:25;23.37;;;13.33;;
71106;SDS011;58763;47.982;11.516;2023-05-14T09:06:52;24.40;;;13.13;;
71106;SDS011;58763;47.982;11.516;2023-05-14T09:09:18;22.30;;;13.13;;
71106;SDS011;58763;47.982;11.516;2023-05-14T09:11:47;23.08;;;12.75;;
71106;SDS011;58763;47.982;11.516;2023-05-14T09:14:16;22.13;;;12.27;;
71106;SDS011;58763;47.982;11.516;2023-05-14T09:16:45;24.10;;;13.10;;
71106;SDS011;58763;47.982;11.516;2023-05-14T09:19:12;23.15;;;13.50;;
71106;SDS011;58763;47.982;11.516;2023-05-14T09:21:39;24.10;;;12.68;;
71106;SDS011;58763;47.982;11.516;2023-05-14T09:24:05;23.58;;;13.73;;
71106;SDS011;58763;47.982;11.516;2023-05-14T09:26:32;23.50;;;13.15;;
71106;SDS011;58763;47.982;11.516;2023-05-14T09:28:59;24.40;;;12.88;;
71106;SDS011;58763;47.982;11.516;2023-05-14T09:31:27;23.85;;;12.93;;
71106;SDS011;58763;47.982;11.516;2023-05-14T09:33:54;23.35;;;12.43;;
71106;SDS011;58763;47.982;11.516;2023-05-14T09:36:19;24.15;;;13.60;;
71106;SDS011;58763;47.982;11.516;2023-05-14T09:38:44;21.90;;;12.95;;
71106;SDS011;58763;47.982;11.516;2023-05-14T09:41:10;22.85;;;12.90;;
71106;SDS011;58763;47.982;11.516;2023-05-14T09:43:36;27.05;;;13.02;;
71106;SDS011;58763;47.982;11.516;2023-05-14T09:46:01;22.80;;;12.27;;
71106;SDS011;58763;47.982;11.516;2023-05-14T09:48:27;20.75;;;11.50;;
71106;SDS011;58763;47.982;11.516;2023-05-14T09:50:53;23.23;;;11.93;;
71106;SDS011;58763;47.982;11.516;2023-05-14T09:53:18;20.15;;;11.60;;
71106;SDS011;58763;47.982;11.516;2023-05-14T09:55:44;19.45;;;11.40;;
71106;SDS011;58763;47.982;11.516;2023-05-14T09:58:10;20.95;;;12.00;;
71106;SDS011;58763;47.982;11.516;2023-05-14T10:00:38;20.55;;;11.85;;
71106;SDS011;58763;47.982;11.516;2023-05-14T10:03:04;19.02;;;11.35;;
71106;SDS011;58763;47.982;11.516;2023-05-14T10:05:34;19.42;;;11.15;;
71106;SDS011;58763;47.982;11.516;2023-05-14T10:08:04;18.08;;;10.55;;
71106;SDS011;58763;47.982;11.516;2023-05-14T10:10:37;18.95;;;10.52;;
71106;SDS011;58763;47.982;11.516;2023-05-14T10:13:04;18.77;;;10.23;;
71106;SDS011;58763;47.982;11.516;2023-05-14T10:15:42;18.83;;;10.50;;
71106;SDS011;58763;47.982;11.516;2023-05-14T10:18:14;16.70;;;9.98;;
71106;SDS011;58763;47.982;11.516;2023-05-14T10:20:41;18.02;;;10.23;;
71106;SDS011;58763;47.982;11.516;2023-05-14T10:23:08;19.85;;;10.77;;
71106;SDS011;58763;47.982;11.516;2023-05-14T10:25:34;17.08;;;10.55;;
71106;SDS011;58763;47.982;11.516;2023-05-14T10:28:00;17.25;;;10.82;;
71106;SDS011;58763;47.982;11.516;2023-05-14T10:30:27;20.10;;;11.48;;
71106;SDS011;58763;47.982;11.516;2023-05-14T10:33:08;18.00;;;10.52;;
71106;SDS011;58763;47.982;11.516;2023-05-14T10:38:31;16.92;;;9.30;;
71106;SDS011;58763;47.982;11.516;2023-05-14T10:41:00;17.38;;;9.88;;
71106;SDS011;58763;47.982;11.516;2023-05-14T10:43:28;16.90;;;9.75;;
71106;SDS011;58763;47.982;11.516;2023-05-14T10:45:58;17.50;;;9.90;;
71106;SDS011;58763;47.982;11.516;2023-05-14T10:48:24;16.43;;;9.20;;
71106;SDS011;58763;47.982;11.516;2023-05-14T10:50:51;17.27;;;9.82;;
71106;SDS011;58763;47.982;11.516;2023-05-14T10:53:18;16.17;;;9.30;;
71106;SDS011;58763;47.982;11.516;2023-05-14T10:55:44;15.10;;;9.45;;
71106;SDS011;58763;47.982;11.516;2023-05-14T10:58:10;15.93;;;9.30;;
71106;SDS011;58763;47.982;11.516;2023-05-14T11:00:37;17.67;;;9.18;;
71106;SDS011;58763;47.982;11.516;2023-05-14T11:03:03;15.38;;;9.57;;
71106;SDS011;58763;47.982;11.516;2023-05-14T11:05:30;14.60;;;8.80;;
71106;SDS011;58763;47.982;11.516;2023-05-14T11:07:56;14.82;;;9.20;;
71106;SDS011;58763;47.982;11.516;2023-05-14T11:10:22;15.25;;;9.63;;
71106;SDS011;58763;47.982;11.516;2023-05-14T11:12:53;17.67;;;9.48;;
71106;SDS011;58763;47.982;11.516;2023-05-14T11:15:21;14.50;;;9.13;;
71106;SDS011;58763;47.982;11.516;2023-05-14T11:17:47;16.92;;;9.13;;
71106;SDS011;58763;47.982;11.516;2023-05-14T11:20:14;15.52;;;8.82;;
71106;SDS011;58763;47.982;11.516;2023-05-14T11:22:43;13.52;;;8.63;;
71106;SDS011;58763;47.982;11.516;2023-05-14T11:25:10;12.38;;;7.68;;
71106;SDS011;58763;47.982;11.516;2023-05-14T11:27:38;14.13;;;8.27;;
71106;SDS011;58763;47.982;11.516;2023-05-14T11:30:11;12.68;;;7.80;;
71106;SDS011;58763;47.982;11.516;2023-05-14T11:32:41;13.05;;;7.38;;
71106;SDS011;58763;47.982;11.516;2023-05-14T11:35:08;12.70;;;6.90;;
71106;SDS011;58763;47.982;11.516;2023-05-14T11:37:34;13.13;;;7.22;;
71106;SDS011;58763;47.982;11.516;2023-05-14T11:40:00;10.73;;;6.38;;
71106;SDS011;58763;47.982;11.516;2023-05-14T11:42:26;12.48;;;6.63;;
71106;SDS011;58763;47.982;11.516;2023-05-14T11:44:51;9.32;;;6.03;;
71106;SDS011;58763;47.982;11.516;2023-05-14T11:47:21;10.25;;;6.00;;
71106;SDS011;58763;47.982;11.516;2023-05-14T11:49:47;9.40;;;6.00;;
71106;SDS011;58763;47.982;11.516;2023-05-14T11:52:14;10.18;;;5.88;;
71106;SDS011;58763;47.982;11.516;2023-05-14T11:54:43;11.63;;;6.10;;
71106;SDS011;58763;47.982;11.516;2023-05-14T11:57:10;10.30;;;6.10;;
71106;SDS011;58763;47.982;11.516;2023-05-14T11:59:47;11.07;;;6.85;;
71106;SDS011;58763;47.982;11.516;2023-05-14T12:02:14;10.18;;;6.10;;
71106;SDS011;58763;47.982;11.516;2023-05-14T12:04:42;11.70;;;5.10;;
71106;SDS011;58763;47.982;11.516;2023-05-14T12:07:10;8.45;;;5.10;;
71106;SDS011;58763;47.982;11.516;2023-05-14T12:09:42;9.55;;;5.70;;
71106;SDS011;58763;47.982;11.516;2023-05-14T12:12:17;9.90;;;5.60;;
71106;SDS011;58763;47.982;11.516;2023-05-14T12:14:46;9.15;;;5.55;;
71106;SDS011;58763;47.982;11.516;2023-05-14T12:17:17;8.73;;;4.93;;
71106;SDS011;58763;47.982;11.516;2023-05-14T12:19:45;7.93;;;4.60;;
71106;SDS011;58763;47.982;11.516;2023-05-14T12:22:13;10.10;;;5.72;;
71106;SDS011;58763;47.982;11.516;2023-05-14T12:24:41;8.25;;;4.95;;
71106;SDS011;58763;47.982;11.516;2023-05-14T12:27:08;9.18;;;4.97;;
71106;SDS011;58763;47.982;11.516;2023-05-14T12:29:34;8.02;;;5.03;;
71106;SDS011;58763;47.982;11.516;2023-05-14T12:32:01;7.85;;;5.22;;
71106;SDS011;58763;47.982;11.516;2023-05-14T12:34:32;8.65;;;5.43;;
71106;SDS011;58763;47.982;11.516;2023-05-14T12:36:58;9.35;;;5.40;;
71106;SDS011;58763;47.982;11.516;2023-05-14T12:39:23;7.55;;;5.07;;
71106;SDS011;58763;47.982;11.516;2023-05-14T12:41:49;8.50;;;5.15;;
71106;SDS011;58763;47.982;11.516;2023-05-14T12:44:14;7.53;;;4.72;;
71106;SDS011;58763;47.982;11.516;2023-05-14T12:46:40;7.88;;;5.00;;
71106;SDS011;58763;47.982;11.516;2023-05-14T12:49:05;8.77;;;4.90;;
71106;SDS011;58763;47.982;11.516;2023-05-14T12:51:31;7.25;;;4.28;;
71106;SDS011;58763;47.982;11.516;2023-05-14T12:53:57;7.07;;;4.40;;
71106;SDS011;58763;47.982;11.516;2023-05-14T12:56:23;8.00;;;4.65;;
71106;SDS011;58763;47.982;11.516;2023-05-14T12:58:55;9.02;;;4.45;;
71106;SDS011;58763;47.982;11.516;2023-05-14T13:01:20;8.15;;;4.57;;
71106;SDS011;58763;47.982;11.516;2023-05-14T13:03:46;6.32;;;3.83;;
71106;SDS011;58763;47.982;11.516;2023-05-14T13:06:12;7.05;;;4.20;;
71106;SDS011;58763;47.982;11.516;2023-05-14T13:08:38;7.35;;;4.55;;
71106;SDS011;58763;47.982;11.516;2023-05-14T13:11:03;6.82;;;4.20;;
71106;SDS011;58763;47.982;11.516;2023-05-14T13:13:29;8.48;;;4.70;;
71106;SDS011;58763;47.982;11.516;2023-05-14T13:15:54;6.60;;;4.10;;
71106;SDS011;58763;47.982;11.516;2023-05-14T13:18:20;6.20;;;3.85;;
71106;SDS011;58763;47.982;11.516;2023-05-14T13:20:46;5.28;;;3.47;;
71106;SDS011;58763;47.982;11.516;2023-05-14T13:23:12;7.22;;;4.35;;
71106;SDS011;58763;47.982;11.516;2023-05-14T13:25:38;6.00;;;4.03;;
71106;SDS011;58763;47.982;11.516;2023-05-14T13:28:03;7.25;;;4.45;;
71106;SDS011;58763;47.982;11.516;2023-05-14T13:30:30;5.82;;;3.97;;
71106;SDS011;58763;47.982;11.516;2023-05-14T13:32:56;5.97;;;3.72;;
71106;SDS011;58763;47.982;11.516;2023-05-14T13:35:22;6.32;;;3.67;;
71106;SDS011;58763;47.982;11.516;2023-05-14T13:37:48;6.75;;;4.10;;
71106;SDS011;58763;47.982;11.516;2023-05-14T13:40:13;6.82;;;3.40;;
71106;SDS011;58763;47.982;11.516;2023-05-14T13:42:38;6.00;;;3.50;;
71106;SDS011;58763;47.982;11.516;2023-05-14T13:45:04;5.07;;;3.28;;
71106;SDS011;58763;47.982;11.516;2023-05-14T13:47:31;5.30;;;3.00;;
71106;SDS011;58763;47.982;11.516;2023-05-14T13:49:57;5.18;;;3.40;;
71106;SDS011;58763;47.982;11.516;2023-05-14T13:52:23;5.15;;;3.15;;
71106;SDS011;58763;47.982;11.516;2023-05-14T13:54:48;6.13;;;2.85;;
71106;SDS011;58763;47.982;11.516;2023-05-14T13:57:16;5.85;;;3.47;;
71106;SDS011;58763;47.982;11.516;2023-05-14T13:59:50;5.10;;;3.38;;
71106;SDS011;58763;47.982;11.516;2023-05-14T14:02:15;5.50;;;3.03;;
71106;SDS011;58763;47.982;11.516;2023-05-14T14:04:41;5.85;;;3.17;;
71106;SDS011;58763;47.982;11.516;2023-05-14T14:07:07;6.07;;;4.07;;
71106;SDS011;58763;47.982;11.516;2023-05-14T14:09:33;5.55;;;3.42;;
71106;SDS011;58763;47.982;11.516;2023-05-14T14:12:02;5.80;;;3.55;;
71106;SDS011;58763;47.982;11.516;2023-05-14T14:14:28;6.10;;;3.33;;
71106;SDS011;58763;47.982;11.516;2023-05-14T14:16:54;5.18;;;3.05;;